createdAt,value
2023-04-27T00:00:52.365Z,7.90
2023-04-27T00:03:20.630Z,7.90
2023-04-27T00:05:50.340Z,7.90
2023-04-27T00:08:18.575Z,7.90
2023-04-27T00:10:46.590Z,7.90
2023-04-27T00:13:14.619Z,7.90
2023-04-27T00:15:42.710Z,7.90
2023-04-27T00:18:10.791Z,7.90
2023-04-27T00:20:38.863Z,7.90
2023-04-27T00:23:08.301Z,7.90
2023-04-27T00:25:36.314Z,7.90
2023-04-27T00:28:04.449Z,7.90
2023-04-27T00:30:32.487Z,7.80
2023-04-27T00:33:00.914Z,7.80
2023-04-27T00:35:29.042Z,7.80
2023-04-27T00:37:57.057Z,7.80
2023-04-27T00:40:26.493Z,7.80
2023-04-27T00:42:54.608Z,7.80
2023-04-27T00:45:22.725Z,7.80
2023-04-27T00:47:51.252Z,7.70
2023-04-27T00:50:24.680Z,7.70
2023-04-27T00:52:52.733Z,7.70
2023-04-27T00:55:21.024Z,7.70
2023-04-27T00:57:50.617Z,7.60
2023-04-27T01:00:18.950Z,7.60
2023-04-27T01:02:47.928Z,7.60
2023-04-27T01:05:16.706Z,7.60
2023-04-27T01:07:44.880Z,7.60
2023-04-27T01:10:12.926Z,7.60
2023-04-27T01:12:41.172Z,7.60
2023-04-27T01:15:12.182Z,7.50
2023-04-27T01:17:40.261Z,7.50
2023-04-27T01:20:10.648Z,7.60
2023-04-27T01:22:39.016Z,7.60
2023-04-27T01:25:09.802Z,7.60
2023-04-27T01:27:37.864Z,7.60
2023-04-27T01:30:07.441Z,7.60
2023-04-27T01:32:37.857Z,7.60
2023-04-27T01:35:06.630Z,7.60
2023-04-27T01:37:34.945Z,7.60
2023-04-27T01:40:03.897Z,7.60
2023-04-27T01:42:33.350Z,7.60
2023-04-27T01:45:01.622Z,7.60
2023-04-27T01:47:29.717Z,7.60
2023-04-27T01:49:57.796Z,7.60
2023-04-27T01:52:26.057Z,7.60
2023-04-27T01:54:54.102Z,7.60
2023-04-27T01:57:22.348Z,7.60
2023-04-27T01:59:51.799Z,7.60
2023-04-27T02:02:19.903Z,7.60
2023-04-27T02:04:48.051Z,7.60
2023-04-27T02:07:16.240Z,7.70
2023-04-27T02:09:45.202Z,7.70
2023-04-27T02:12:13.273Z,7.60
2023-04-27T02:14:41.413Z,7.70
2023-04-27T02:17:10.834Z,7.60
2023-04-27T02:19:38.930Z,7.60
2023-04-27T02:22:06.973Z,7.60
2023-04-27T02:24:36.722Z,7.60
2023-04-27T02:27:04.966Z,7.60
2023-04-27T02:29:33.577Z,7.60
2023-04-27T02:32:02.155Z,7.70
2023-04-27T02:34:31.696Z,7.60
2023-04-27T02:36:59.959Z,7.70
2023-04-27T02:39:28.001Z,7.70
2023-04-27T02:41:56.050Z,7.70
2023-04-27T02:44:24.139Z,7.60
2023-04-27T02:46:52.395Z,7.50
2023-04-27T02:49:21.036Z,7.50
2023-04-27T02:51:50.440Z,7.40
2023-04-27T02:54:18.491Z,7.50
2023-04-27T02:56:46.482Z,7.50
2023-04-27T02:59:14.773Z,7.50
2023-04-27T03:01:43.123Z,7.50
2023-04-27T03:04:14.096Z,7.50
2023-04-27T03:06:42.462Z,7.60
2023-04-27T03:09:12.928Z,7.60
2023-04-27T03:11:41.553Z,7.60
2023-04-27T03:14:09.660Z,7.60
2023-04-27T03:16:37.707Z,7.60
2023-04-27T03:19:06.200Z,7.60
2023-04-27T03:21:34.233Z,7.50
2023-04-27T03:24:02.243Z,7.60
2023-04-27T03:26:31.659Z,7.50
2023-04-27T03:28:59.732Z,7.50
2023-04-27T03:31:27.836Z,7.50
2023-04-27T03:33:55.845Z,7.50
2023-04-27T03:36:23.894Z,7.50
2023-04-27T03:38:51.894Z,7.50
2023-04-27T03:41:19.934Z,7.50
2023-04-27T03:43:50.830Z,7.50
2023-04-27T03:46:18.905Z,7.50
2023-04-27T03:48:47.203Z,7.50
2023-04-27T03:51:16.311Z,7.50
2023-04-27T03:53:44.336Z,7.50
2023-04-27T03:56:12.396Z,7.50
2023-04-27T03:58:40.515Z,7.50
2023-04-27T04:01:11.172Z,7.50
2023-04-27T04:03:39.477Z,7.50
2023-04-27T04:06:07.880Z,7.50
2023-04-27T04:08:35.958Z,7.50
2023-04-27T04:11:04.094Z,7.50
2023-04-27T04:13:32.216Z,7.50
2023-04-27T04:16:05.469Z,7.50
2023-04-27T04:18:34.979Z,7.50
2023-04-27T04:21:03.181Z,7.50
2023-04-27T04:23:32.815Z,7.50
2023-04-27T04:26:02.243Z,7.50
2023-04-27T04:28:30.711Z,7.50
2023-04-27T04:30:59.123Z,7.50
2023-04-27T04:33:27.333Z,7.50
2023-04-27T04:35:57.280Z,7.40
2023-04-27T04:38:25.305Z,7.40
2023-04-27T04:40:53.797Z,7.40
2023-04-27T04:43:22.646Z,7.40
2023-04-27T04:45:50.935Z,7.40
2023-04-27T04:48:19.874Z,7.40
2023-04-27T04:50:47.906Z,7.30
2023-04-27T04:53:17.314Z,7.30
2023-04-27T04:55:45.328Z,7.30
2023-04-27T04:58:13.361Z,7.40
2023-04-27T05:00:41.533Z,7.30
2023-04-27T05:03:09.711Z,7.40
2023-04-27T05:05:37.928Z,7.40
2023-04-27T05:08:06.194Z,7.40
2023-04-27T05:10:35.584Z,7.40
2023-04-27T05:13:05.309Z,7.50
2023-04-27T05:15:35.086Z,7.50
2023-04-27T05:18:03.167Z,7.60
2023-04-27T05:20:35.488Z,7.50
2023-04-27T05:23:03.549Z,7.50
2023-04-27T05:25:31.763Z,7.40
2023-04-27T05:28:01.193Z,7.40
2023-04-27T05:30:29.348Z,7.50
2023-04-27T05:32:57.413Z,7.60
2023-04-27T05:35:25.708Z,7.60
2023-04-27T05:37:53.730Z,7.50
2023-04-27T05:40:21.802Z,7.50
2023-04-27T05:42:50.113Z,7.50
2023-04-27T05:45:19.560Z,7.50
2023-04-27T05:47:47.784Z,7.60
2023-04-27T05:50:15.963Z,7.60
2023-04-27T05:52:43.996Z,7.70
2023-04-27T05:55:12.092Z,7.70
2023-04-27T05:57:41.406Z,7.80
2023-04-27T06:00:11.074Z,7.80
2023-04-27T06:02:40.797Z,7.90
2023-04-27T06:05:09.705Z,7.90
2023-04-27T06:07:37.918Z,7.90
2023-04-27T06:10:07.721Z,8.00
2023-04-27T06:12:35.810Z,8.00
2023-04-27T06:15:08.372Z,8.00
2023-04-27T06:17:36.603Z,8.00
2023-04-27T06:20:08.439Z,8.00
2023-04-27T06:22:37.119Z,8.00
2023-04-27T06:25:05.801Z,8.10
2023-04-27T06:27:34.101Z,8.10
2023-04-27T06:30:02.396Z,8.20
2023-04-27T06:32:30.539Z,8.30
2023-04-27T06:34:58.577Z,8.30
2023-04-27T06:37:28.004Z,8.40
2023-04-27T06:39:56.258Z,8.40
2023-04-27T06:42:24.298Z,8.40
2023-04-27T06:44:55.877Z,8.40
2023-04-27T06:47:24.017Z,8.40
2023-04-27T06:49:52.057Z,8.40
2023-04-27T06:52:20.510Z,8.40
2023-04-27T06:54:49.943Z,8.40
2023-04-27T06:57:17.955Z,8.40
2023-04-27T06:59:46.094Z,8.60
2023-04-27T07:02:14.288Z,8.60
2023-04-27T07:04:43.421Z,8.60
2023-04-27T07:07:11.571Z,8.60
2023-04-27T07:09:39.582Z,8.70
2023-04-27T07:12:09.044Z,8.70
2023-04-27T07:14:37.051Z,8.80
2023-04-27T07:17:05.155Z,8.70
2023-04-27T07:19:33.653Z,8.60
2023-04-27T07:22:01.689Z,8.60
2023-04-27T07:24:29.677Z,8.70
2023-04-27T07:26:59.396Z,8.80
2023-04-27T07:29:29.583Z,8.80
2023-04-27T07:31:57.959Z,8.90
2023-04-27T07:34:26.169Z,9.00
2023-04-27T07:36:55.087Z,9.10
2023-04-27T07:39:23.947Z,9.20
2023-04-27T07:41:52.705Z,9.20
2023-04-27T07:44:21.109Z,9.30
2023-04-27T07:46:50.572Z,9.50
2023-04-27T07:49:19.970Z,9.70
2023-04-27T07:51:48.147Z,9.80
2023-04-27T07:54:16.183Z,9.90
2023-04-27T07:56:44.508Z,10.00
2023-04-27T07:59:12.949Z,10.00
2023-04-27T08:01:41.283Z,10.10
2023-04-27T08:04:12.587Z,10.10
2023-04-27T08:06:41.330Z,10.20
2023-04-27T08:09:10.192Z,10.10
2023-04-27T08:11:38.312Z,10.10
2023-04-27T08:14:08.980Z,10.20
2023-04-27T08:16:37.081Z,10.30
2023-04-27T08:19:05.179Z,10.40
2023-04-27T08:21:34.581Z,10.50
2023-04-27T08:24:02.609Z,10.60
2023-04-27T08:26:30.687Z,10.70
2023-04-27T08:28:59.751Z,10.80
2023-04-27T08:31:28.076Z,10.70
2023-04-27T08:33:57.250Z,10.90
2023-04-27T08:36:26.184Z,11.00
2023-04-27T08:38:55.924Z,11.20
2023-04-27T08:41:25.219Z,11.50
2023-04-27T08:43:53.898Z,11.50
2023-04-27T08:46:22.411Z,11.50
2023-04-27T08:48:52.141Z,11.40
2023-04-27T08:51:21.095Z,11.40
2023-04-27T08:53:53.433Z,11.40
2023-04-27T08:56:25.067Z,11.30
2023-04-27T08:58:53.426Z,11.20
2023-04-27T09:01:21.928Z,11.30
2023-04-27T09:03:50.498Z,11.40
2023-04-27T09:06:18.675Z,11.70
2023-04-27T09:08:48.445Z,11.70
2023-04-27T09:11:18.051Z,11.60
2023-04-27T09:13:47.479Z,11.70
2023-04-27T09:16:15.545Z,11.40
2023-04-27T09:18:45.125Z,11.50
2023-04-27T09:21:24.093Z,11.60
2023-04-27T09:23:52.347Z,11.70
2023-04-27T09:26:24.607Z,11.60
2023-04-27T09:28:57.013Z,11.50
2023-04-27T09:31:32.778Z,11.50
2023-04-27T09:34:01.132Z,11.50
2023-04-27T09:36:30.540Z,11.40
2023-04-27T09:38:58.927Z,11.30
2023-04-27T09:41:28.277Z,11.50
2023-04-27T09:43:59.235Z,11.50
2023-04-27T09:46:29.359Z,11.60
2023-04-27T09:48:58.640Z,11.50
2023-04-27T09:51:28.477Z,11.50
2023-04-27T09:54:01.636Z,11.40
2023-04-27T09:56:39.766Z,11.20
2023-04-27T09:59:22.859Z,11.10
2023-04-27T10:01:53.578Z,11.00
2023-04-27T10:04:41.871Z,11.00
2023-04-27T10:07:12.909Z,11.10
2023-04-27T10:09:43.053Z,11.10
2023-04-27T10:12:19.153Z,11.10
2023-04-27T10:14:56.117Z,11.30
2023-04-27T10:17:31.316Z,11.50
2023-04-27T10:20:00.737Z,11.60
2023-04-27T10:22:42.302Z,11.70
2023-04-27T10:25:21.671Z,12.00
2023-04-27T10:27:55.307Z,12.40
2023-04-27T10:30:26.791Z,12.60
2023-04-27T10:32:56.476Z,12.50
2023-04-27T10:35:34.278Z,12.50
2023-04-27T10:38:09.577Z,12.30
2023-04-27T10:40:42.544Z,12.20
2023-04-27T10:43:11.750Z,12.00
2023-04-27T10:45:41.486Z,11.90
2023-04-27T10:48:22.008Z,11.70
2023-04-27T10:51:05.818Z,11.70
2023-04-27T10:53:40.822Z,11.40
2023-04-27T10:56:09.122Z,11.50
2023-04-27T11:01:11.506Z,11.60
2023-04-27T11:04:03.298Z,11.70
2023-04-27T11:06:33.212Z,11.80
2023-04-27T11:09:02.630Z,11.80
2023-04-27T11:11:30.654Z,11.70
2023-04-27T11:13:59.557Z,11.80
2023-04-27T11:16:30.700Z,11.70
2023-04-27T11:19:06.155Z,11.60
2023-04-27T11:21:34.291Z,11.50
2023-04-27T11:24:06.570Z,11.60
2023-04-27T11:26:35.038Z,11.50
2023-04-27T11:29:05.730Z,11.50
2023-04-27T11:31:43.682Z,11.40
2023-04-27T11:34:16.994Z,11.50
2023-04-27T11:36:45.056Z,11.60
2023-04-27T11:39:19.612Z,11.70
2023-04-27T11:41:47.651Z,11.80
2023-04-27T11:44:15.767Z,12.00
2023-04-27T11:46:47.546Z,12.30
2023-04-27T11:49:15.888Z,12.40
2023-04-27T11:51:45.084Z,12.50
2023-04-27T11:54:13.777Z,12.40
2023-04-27T11:56:43.797Z,12.50
2023-04-27T11:59:21.250Z,12.40
2023-04-27T12:01:52.435Z,12.30
2023-04-27T12:04:21.082Z,12.20
2023-04-27T12:06:49.359Z,12.10
2023-04-27T12:09:17.508Z,12.20
2023-04-27T12:11:45.757Z,12.30
2023-04-27T12:14:13.880Z,12.20
2023-04-27T12:16:42.183Z,12.10
2023-04-27T12:19:11.787Z,12.10
2023-04-27T12:21:39.849Z,12.10
2023-04-27T12:24:08.310Z,12.10
2023-04-27T12:26:36.504Z,12.30
2023-04-27T12:29:04.505Z,12.40
2023-04-27T12:31:32.722Z,12.70
2023-04-27T12:34:00.802Z,12.90
2023-04-27T12:36:30.212Z,12.90
2023-04-27T12:39:00.156Z,12.70
2023-04-27T12:41:28.262Z,12.80
2023-04-27T12:43:56.646Z,12.90
2023-04-27T12:46:24.721Z,12.90
2023-04-27T12:48:52.819Z,13.00
2023-04-27T12:51:21.142Z,12.80
2023-04-27T12:53:50.790Z,12.80
2023-04-27T12:56:19.292Z,12.70
2023-04-27T12:58:47.315Z,12.60
2023-04-27T13:01:15.684Z,12.40
2023-04-27T13:03:44.160Z,12.40
2023-04-27T13:06:12.280Z,12.50
2023-04-27T13:08:41.015Z,12.50
2023-04-27T13:11:10.427Z,12.50
2023-04-27T13:13:38.488Z,12.60
2023-04-27T13:16:06.762Z,12.80
2023-04-27T13:18:35.542Z,12.80
2023-04-27T13:21:05.160Z,12.90
2023-04-27T13:23:34.238Z,12.90
2023-04-27T13:26:02.306Z,13.00
2023-04-27T13:28:31.961Z,13.00
2023-04-27T13:31:01.043Z,12.80
2023-04-27T13:33:34.084Z,12.80
2023-04-27T13:36:03.847Z,12.90
2023-04-27T13:38:31.899Z,12.90
2023-04-27T13:40:59.942Z,12.90
2023-04-27T13:43:27.981Z,12.90
2023-04-27T13:46:00.236Z,12.80
2023-04-27T13:48:29.144Z,12.70
2023-04-27T13:50:57.854Z,12.60
2023-04-27T13:53:29.742Z,12.60
2023-04-27T13:55:59.000Z,12.70
2023-04-27T13:58:29.046Z,12.90
2023-04-27T14:00:59.105Z,13.10
2023-04-27T14:03:27.318Z,13.30
2023-04-27T14:05:56.141Z,13.40
2023-04-27T14:08:24.195Z,13.50
2023-04-27T14:10:52.191Z,13.70
2023-04-27T14:13:20.453Z,13.80
2023-04-27T14:15:48.528Z,13.70
2023-04-27T14:18:18.218Z,13.30
2023-04-27T14:20:46.605Z,13.20
2023-04-27T14:23:14.650Z,13.10
2023-04-27T14:25:42.732Z,13.10
2023-04-27T14:28:12.704Z,13.40
2023-04-27T14:30:40.779Z,13.50
2023-04-27T14:33:08.812Z,13.60
2023-04-27T14:35:38.330Z,13.60
2023-04-27T14:38:06.849Z,13.50
2023-04-27T14:40:35.127Z,13.40
2023-04-27T14:43:03.099Z,13.30
2023-04-27T14:45:36.964Z,13.20
2023-04-27T14:48:12.084Z,13.20
2023-04-27T14:50:41.545Z,13.20
2023-04-27T14:53:09.572Z,13.00
2023-04-27T14:55:37.704Z,12.90
2023-04-27T14:58:05.709Z,13.00
2023-04-27T15:00:33.797Z,13.10
2023-04-27T15:03:01.861Z,13.20
2023-04-27T15:05:30.041Z,13.10
2023-04-27T15:07:59.404Z,13.00
2023-04-27T15:10:27.490Z,12.90
2023-04-27T15:12:55.496Z,12.80
2023-04-27T15:15:23.477Z,12.70
2023-04-27T15:17:51.576Z,12.70
2023-04-27T15:20:20.034Z,12.60
2023-04-27T15:22:48.065Z,12.60
2023-04-27T15:25:17.450Z,12.60
2023-04-27T15:27:45.493Z,12.60
2023-04-27T15:30:15.182Z,12.60
2023-04-27T15:32:43.372Z,12.50
2023-04-27T15:35:11.525Z,12.50
2023-04-27T15:37:39.537Z,12.50
2023-04-27T15:40:09.073Z,12.50
2023-04-27T15:42:39.591Z,12.50
2023-04-27T15:45:10.037Z,12.40
2023-04-27T15:47:38.213Z,12.50
2023-04-27T15:50:08.019Z,12.50
2023-04-27T15:52:36.137Z,12.50
2023-04-27T15:55:05.298Z,12.50
2023-04-27T15:57:33.557Z,12.50
2023-04-27T16:00:06.882Z,12.50
2023-04-27T16:02:34.956Z,12.40
2023-04-27T16:05:03.096Z,12.40
2023-04-27T16:07:32.476Z,12.40
2023-04-27T16:10:00.817Z,12.50
2023-04-27T16:12:29.516Z,12.60
2023-04-27T16:14:58.050Z,12.60
2023-04-27T16:17:29.086Z,12.60
2023-04-27T16:19:57.251Z,12.60
2023-04-27T16:22:26.093Z,12.70
2023-04-27T16:24:54.090Z,12.70
2023-04-27T16:27:22.077Z,12.70
2023-04-27T16:29:50.091Z,12.80
2023-04-27T16:32:19.925Z,12.70
2023-04-27T16:34:49.448Z,12.70
2023-04-27T16:37:17.501Z,12.70
2023-04-27T16:39:46.449Z,12.60
2023-04-27T16:42:19.750Z,12.40
2023-04-27T16:44:47.854Z,12.30
2023-04-27T16:47:16.206Z,12.20
2023-04-27T16:49:44.404Z,12.10
2023-04-27T16:52:13.967Z,12.10
2023-04-27T16:54:42.119Z,12.10
2023-04-27T16:57:10.409Z,12.10
2023-04-27T16:59:38.465Z,12.20
2023-04-27T17:02:21.005Z,12.20
2023-04-27T17:04:52.889Z,12.20
2023-04-27T17:07:22.437Z,12.20
2023-04-27T17:09:50.481Z,12.20
2023-04-27T17:12:18.519Z,12.20
2023-04-27T17:14:46.612Z,12.10
2023-04-27T17:17:14.972Z,12.10
2023-04-27T17:19:43.006Z,12.10
2023-04-27T17:22:13.264Z,12.00
2023-04-27T17:24:42.690Z,12.00
2023-04-27T17:27:11.216Z,12.00
2023-04-27T17:29:39.230Z,11.90
2023-04-27T17:32:07.368Z,11.90
2023-04-27T17:34:35.508Z,11.90
2023-04-27T17:37:03.562Z,11.90
2023-04-27T17:39:31.589Z,11.80
2023-04-27T17:42:00.973Z,11.80
2023-04-27T17:44:29.218Z,11.80
2023-04-27T17:46:57.305Z,11.70
2023-04-27T17:49:25.784Z,11.70
2023-04-27T17:51:53.786Z,11.70
2023-04-27T17:54:21.808Z,11.60
2023-04-27T17:56:49.801Z,11.60
2023-04-27T17:59:19.238Z,11.50
2023-04-27T18:01:47.306Z,11.50
2023-04-27T18:04:15.458Z,11.40
2023-04-27T18:06:43.521Z,11.40
2023-04-27T18:09:11.659Z,11.30
2023-04-27T18:11:39.957Z,11.30
2023-04-27T18:14:08.104Z,11.20
2023-04-27T18:16:37.489Z,11.10
2023-04-27T18:19:05.593Z,11.10
2023-04-27T18:21:33.613Z,11.10
2023-04-27T18:24:01.872Z,11.10
2023-04-27T18:26:30.592Z,11.00
2023-04-27T18:28:59.642Z,11.00
2023-04-27T18:31:27.662Z,10.90
2023-04-27T18:33:57.102Z,10.80
2023-04-27T18:36:25.660Z,10.70
2023-04-27T18:38:53.686Z,10.60
2023-04-27T18:41:21.675Z,10.60
2023-04-27T18:43:49.680Z,10.50
2023-04-27T18:46:17.722Z,10.50
2023-04-27T18:48:46.337Z,10.50
2023-04-27T18:51:15.807Z,10.60
2023-04-27T18:53:43.853Z,10.50
2023-04-27T18:56:12.099Z,10.40
2023-04-27T18:58:40.189Z,10.20
2023-04-27T19:01:08.330Z,10.10
2023-04-27T19:03:36.600Z,10.00
2023-04-27T19:06:04.953Z,9.90
2023-04-27T19:08:34.531Z,9.90
2023-04-27T19:11:02.546Z,9.90
2023-04-27T19:13:30.579Z,9.90
2023-04-27T19:15:59.203Z,9.80
2023-04-27T19:18:27.873Z,9.70
2023-04-27T19:20:57.920Z,9.60
2023-04-27T19:23:25.949Z,9.60
2023-04-27T19:26:00.168Z,9.60
2023-04-27T19:28:38.013Z,9.50
2023-04-27T19:31:06.921Z,9.50
2023-04-27T19:33:35.162Z,9.40
2023-04-27T19:36:03.208Z,9.40
2023-04-27T19:38:31.328Z,9.30
2023-04-27T19:41:00.736Z,9.20
2023-04-27T19:43:29.091Z,9.20
2023-04-27T19:45:57.122Z,9.20
2023-04-27T19:48:25.210Z,9.20
2023-04-27T19:50:54.717Z,9.10
2023-04-27T19:53:22.778Z,9.10
2023-04-27T19:55:50.797Z,9.10
2023-04-27T19:58:20.189Z,9.20
2023-04-27T20:00:48.223Z,9.10
2023-04-27T20:03:16.315Z,9.00
2023-04-27T20:05:44.849Z,8.90
2023-04-27T20:08:13.094Z,8.80
2023-04-27T20:10:42.019Z,8.80
2023-04-27T20:13:10.058Z,8.70
2023-04-27T20:15:39.481Z,8.70
2023-04-27T20:18:07.554Z,8.70
2023-04-27T20:20:35.783Z,8.60
2023-04-27T20:23:03.838Z,8.60
2023-04-27T20:25:32.146Z,8.50
2023-04-27T20:28:00.213Z,8.50
2023-04-27T20:30:28.730Z,8.50
2023-04-27T20:32:58.122Z,8.40
2023-04-27T20:35:26.334Z,8.40
2023-04-27T20:38:00.925Z,8.30
2023-04-27T20:40:29.451Z,8.30
2023-04-27T20:42:57.465Z,8.30
2023-04-27T20:45:25.543Z,8.30
2023-04-27T20:47:53.697Z,8.20
2023-04-27T20:50:23.113Z,8.20
2023-04-27T20:52:51.474Z,8.20
2023-04-27T20:55:27.005Z,8.20
2023-04-27T20:57:55.137Z,8.30
2023-04-27T21:00:23.276Z,8.30
2023-04-27T21:02:51.469Z,8.20
2023-04-27T21:05:19.724Z,8.20
2023-04-27T21:07:49.138Z,8.10
2023-04-27T21:10:17.319Z,8.10
2023-04-27T21:12:45.413Z,8.00
2023-04-27T21:15:13.408Z,8.00
2023-04-27T21:17:41.774Z,7.90
2023-04-27T21:20:11.121Z,7.90
2023-04-27T21:22:39.168Z,7.90
2023-04-27T21:25:14.164Z,7.80
2023-04-27T21:27:43.308Z,7.80
2023-04-27T21:30:12.707Z,7.80
2023-04-27T21:32:40.904Z,7.70
2023-04-27T21:35:10.182Z,7.70
2023-04-27T21:37:38.166Z,7.60
2023-04-27T21:40:09.187Z,7.70
2023-04-27T21:42:37.200Z,7.70
2023-04-27T21:45:05.909Z,7.70
2023-04-27T21:47:33.960Z,7.70
2023-04-27T21:50:01.981Z,7.70
2023-04-27T21:52:29.987Z,7.60
2023-04-27T21:54:59.181Z,7.60
2023-04-27T21:57:28.570Z,7.60
2023-04-27T21:59:56.564Z,7.50
2023-04-27T22:02:24.965Z,7.40
2023-04-27T22:04:53.311Z,7.40
2023-04-27T22:07:21.536Z,7.40
2023-04-27T22:09:49.583Z,7.40
2023-04-27T22:12:17.639Z,7.40
2023-04-27T22:14:47.286Z,7.40
2023-04-27T22:17:15.311Z,7.40
2023-04-27T22:19:43.398Z,7.40
2023-04-27T22:22:11.614Z,7.40
2023-04-27T22:24:48.288Z,7.30
2023-04-27T22:27:16.468Z,7.30
2023-04-27T22:29:45.857Z,7.20
2023-04-27T22:32:14.598Z,7.20
2023-04-27T22:34:43.900Z,7.20
2023-04-27T22:37:12.007Z,7.10
2023-04-27T22:39:40.110Z,7.10
2023-04-27T22:42:08.221Z,7.10
2023-04-27T22:44:36.465Z,7.20
2023-04-27T22:47:06.039Z,7.20
2023-04-27T22:49:36.341Z,7.10
2023-04-27T22:52:04.773Z,7.10
2023-04-27T22:54:32.819Z,7.10
2023-04-27T22:57:00.883Z,7.00
2023-04-27T22:59:28.901Z,7.00
2023-04-27T23:01:56.951Z,7.10
2023-04-27T23:04:26.577Z,7.10
2023-04-27T23:06:55.042Z,7.10
2023-04-27T23:09:23.072Z,7.10
2023-04-27T23:11:52.008Z,7.10
2023-04-27T23:14:26.760Z,7.00
2023-04-27T23:16:56.335Z,7.00
2023-04-27T23:19:24.396Z,6.90
2023-04-27T23:21:53.777Z,6.90
2023-04-27T23:24:21.931Z,6.90
2023-04-27T23:26:50.016Z,6.90
2023-04-27T23:29:18.031Z,6.90
2023-04-27T23:31:46.130Z,6.90
2023-04-27T23:34:14.432Z,6.90
2023-04-27T23:36:42.797Z,6.80
2023-04-27T23:39:12.254Z,6.80
2023-04-27T23:41:49.100Z,6.80
2023-04-27T23:44:25.544Z,6.80
2023-04-27T23:46:53.593Z,6.80
2023-04-27T23:49:21.651Z,6.80
2023-04-27T23:51:50.092Z,6.70
2023-04-27T23:54:19.469Z,6.70
2023-04-27T23:56:47.487Z,6.70
2023-04-27T23:59:17.042Z,6.70
